createdAt,value
2023-01-13T00:01:50.530Z,3.23
2023-01-13T00:05:56.183Z,2.27
2023-01-13T00:10:00.785Z,3.73
2023-01-13T00:14:09.554Z,4.27
2023-01-13T00:18:16.853Z,12.00
2023-01-13T00:22:20.212Z,2.00
2023-01-13T00:26:26.940Z,2.72
2023-01-13T00:30:34.199Z,4.60
2023-01-13T00:34:39.097Z,5.97
2023-01-13T00:38:46.200Z,5.82
2023-01-13T00:43:06.845Z,2.97
2023-01-13T00:47:12.413Z,3.55
2023-01-13T00:51:18.146Z,2.03
2023-01-13T00:55:21.638Z,7.37
2023-01-13T00:59:25.332Z,3.90
2023-01-13T01:03:30.041Z,5.57
2023-01-13T01:07:33.340Z,2.10
2023-01-13T01:11:41.378Z,3.00
2023-01-13T01:15:47.796Z,4.03
2023-01-13T01:19:54.833Z,4.93
2023-01-13T01:24:01.085Z,2.60
2023-01-13T01:28:06.704Z,2.65
2023-01-13T01:32:09.686Z,3.28
2023-01-13T01:36:14.935Z,4.10
2023-01-13T01:40:18.280Z,1.83
2023-01-13T01:45:00.133Z,3.40
2023-01-13T01:49:11.856Z,8.13
2023-01-13T01:53:24.589Z,1.43
2023-01-13T01:57:32.558Z,3.03
2023-01-13T02:01:38.966Z,2.20
2023-01-13T02:05:42.525Z,1.60
2023-01-13T02:09:47.030Z,1.80
2023-01-13T02:13:51.581Z,2.78
2023-01-13T02:18:18.079Z,3.08
2023-01-13T02:22:46.510Z,1.37
2023-01-13T02:27:26.347Z,2.85
2023-01-13T02:31:44.798Z,2.58
2023-01-13T02:35:56.987Z,2.83
2023-01-13T02:40:07.114Z,2.03
2023-01-13T02:44:11.544Z,1.60
2023-01-13T02:48:17.901Z,5.40
2023-01-13T02:52:25.086Z,2.10
2023-01-13T02:56:29.168Z,3.33
2023-01-13T03:05:03.338Z,7.03
2023-01-13T03:09:18.988Z,3.90
2023-01-13T03:13:53.833Z,2.47
2023-01-13T03:18:03.824Z,4.07
2023-01-13T03:22:25.301Z,5.88
2023-01-13T03:26:34.851Z,1.50
2023-01-13T03:30:46.121Z,2.78
2023-01-13T03:34:52.383Z,2.05
2023-01-13T03:39:00.187Z,1.30
2023-01-13T03:43:27.135Z,1.50
2023-01-13T03:47:36.873Z,2.78
2023-01-13T03:51:45.369Z,2.97
2023-01-13T03:55:53.828Z,1.53
2023-01-13T04:00:01.744Z,3.58
2023-01-13T04:04:10.540Z,4.43
2023-01-13T04:08:20.155Z,1.40
2023-01-13T04:12:51.390Z,2.57
2023-01-13T04:16:58.363Z,1.65
2023-01-13T04:21:03.016Z,2.33
2023-01-13T04:25:06.914Z,3.13
2023-01-13T04:29:12.260Z,2.92
2023-01-13T04:33:18.238Z,1.92
2023-01-13T04:37:23.095Z,6.83
2023-01-13T04:41:27.910Z,1.85
2023-01-13T04:45:32.677Z,2.05
2023-01-13T04:49:36.105Z,1.23
2023-01-13T04:53:39.373Z,1.73
2023-01-13T04:57:45.139Z,1.10
2023-01-13T05:01:52.048Z,2.20
2023-01-13T05:05:56.679Z,2.10
2023-01-13T05:10:00.044Z,1.77
2023-01-13T05:14:20.686Z,2.17
2023-01-13T05:18:25.157Z,1.85
2023-01-13T05:22:45.755Z,1.50
2023-01-13T05:26:48.819Z,1.88
2023-01-13T05:30:53.441Z,1.77
2023-01-13T05:34:59.544Z,1.15
2023-01-13T05:39:05.426Z,4.10
2023-01-13T05:43:22.510Z,2.33
2023-01-13T05:47:27.935Z,1.67
2023-01-13T05:51:32.787Z,1.40
2023-01-13T05:55:39.916Z,2.15
2023-01-13T05:59:47.602Z,2.33
2023-01-13T06:03:53.356Z,1.50
2023-01-13T06:08:04.996Z,1.30
2023-01-13T06:12:11.342Z,2.25
2023-01-13T06:16:17.526Z,3.88
2023-01-13T06:20:21.482Z,1.50
2023-01-13T06:24:26.515Z,1.17
2023-01-13T06:28:35.697Z,3.45
2023-01-13T06:32:45.367Z,3.30
2023-01-13T06:36:52.472Z,1.27
2023-01-13T06:40:57.039Z,1.65
2023-01-13T06:45:03.106Z,2.35
2023-01-13T06:49:07.092Z,2.75
2023-01-13T06:53:10.192Z,1.08
2023-01-13T06:57:15.948Z,1.58
2023-01-13T07:01:23.011Z,1.10
2023-01-13T07:05:27.142Z,2.45
2023-01-13T07:09:31.530Z,1.50
2023-01-13T07:13:57.548Z,3.83
2023-01-13T07:18:03.279Z,1.05
2023-01-13T07:22:08.184Z,3.33
2023-01-13T07:26:15.282Z,6.20
2023-01-13T07:30:22.339Z,2.90
2023-01-13T07:34:30.262Z,1.45
2023-01-13T07:38:34.867Z,1.88
2023-01-13T07:42:57.841Z,1.52
2023-01-13T07:47:02.533Z,2.72
2023-01-13T07:51:09.029Z,1.23
2023-01-13T07:55:15.461Z,1.40
2023-01-13T07:59:18.739Z,4.40
2023-01-13T08:03:24.255Z,1.10
2023-01-13T08:07:27.349Z,8.43
2023-01-13T08:11:35.994Z,4.72
2023-01-13T08:15:39.426Z,2.60
2023-01-13T08:19:43.801Z,3.95
2023-01-13T08:23:47.233Z,2.40
2023-01-13T08:27:51.043Z,1.30
2023-01-13T08:31:55.626Z,1.88
2023-01-13T08:36:03.554Z,1.13
2023-01-13T08:40:08.450Z,4.03
2023-01-13T08:44:11.530Z,1.40
2023-01-13T08:48:17.383Z,1.40
2023-01-13T08:52:23.238Z,1.10
2023-01-13T08:56:26.244Z,2.97
2023-01-13T09:00:30.397Z,2.05
2023-01-13T09:04:35.008Z,1.55
2023-01-13T09:08:41.895Z,1.00
2023-01-13T09:13:02.537Z,1.00
2023-01-13T09:17:06.034Z,1.38
2023-01-13T09:21:15.280Z,1.33
2023-01-13T09:25:25.552Z,1.20
2023-01-13T09:29:32.657Z,1.00
2023-01-13T09:33:59.583Z,2.00
2023-01-13T09:38:02.625Z,2.88
2023-01-13T09:42:35.784Z,10.10
2023-01-13T09:46:47.453Z,49.22
2023-01-13T09:51:00.987Z,7.15
2023-01-13T09:55:10.441Z,81.85
2023-01-13T09:59:17.858Z,72.97
2023-01-13T10:03:30.273Z,38.35
2023-01-13T10:07:37.309Z,196.75
2023-01-13T10:12:01.379Z,46.88
2023-01-13T10:16:21.151Z,41.95
2023-01-13T10:20:30.447Z,25.63
2023-01-13T10:24:49.517Z,7.10
2023-01-13T10:28:53.910Z,5.82
2023-01-13T10:33:06.031Z,8.02
2023-01-13T10:37:22.264Z,3.58
2023-01-13T10:41:34.287Z,3.45
2023-01-13T10:45:37.535Z,31.42
2023-01-13T10:49:44.729Z,4.15
2023-01-13T10:53:57.660Z,4.18
2023-01-13T10:58:13.990Z,2.97
2023-01-13T11:02:33.677Z,1.75
2023-01-13T11:06:48.360Z,1.50
2023-01-13T11:10:56.564Z,1.58
2023-01-13T11:15:08.709Z,2.53
2023-01-13T11:19:16.931Z,2.08
2023-01-13T11:23:27.650Z,2.70
2023-01-13T11:27:41.577Z,2.75
2023-01-13T11:31:52.235Z,1.55
2023-01-13T11:36:06.583Z,1.50
2023-01-13T11:40:19.045Z,1.00
2023-01-13T11:44:29.196Z,1.58
2023-01-13T11:48:41.321Z,1.23
2023-01-13T11:53:12.350Z,68.80
2023-01-13T11:57:40.616Z,6.68
2023-01-13T12:02:00.973Z,134.77
2023-01-13T12:06:14.634Z,309.27
2023-01-13T12:10:38.985Z,14.40
2023-01-13T12:15:07.648Z,8.32
2023-01-13T12:19:24.440Z,16.73
2023-01-13T12:23:35.486Z,25.92
2023-01-13T12:27:48.447Z,14.88
2023-01-13T12:31:55.459Z,10.98
2023-01-13T12:36:04.753Z,3.30
2023-01-13T12:40:20.736Z,2.92
2023-01-13T12:44:27.459Z,2.80
2023-01-13T12:49:11.220Z,2.60
2023-01-13T12:53:38.702Z,2.10
2023-01-13T12:58:23.305Z,2.90
2023-01-13T13:02:40.693Z,2.38
2023-01-13T13:06:52.553Z,1.77
2023-01-13T13:11:42.416Z,1.75
2023-01-13T13:15:47.824Z,1.73
2023-01-13T13:19:53.232Z,2.78
2023-01-13T13:24:05.321Z,17.60
2023-01-13T13:28:22.273Z,6.70
2023-01-13T13:32:53.071Z,4.75
2023-01-13T13:37:17.400Z,2.10
2023-01-13T13:41:41.621Z,1.40
2023-01-13T13:46:10.624Z,3.33
2023-01-13T13:50:20.499Z,4.40
2023-01-13T13:54:24.450Z,1.40
2023-01-13T13:58:30.515Z,1.75
2023-01-13T14:02:38.085Z,3.85
2023-01-13T14:06:54.873Z,4.20
2023-01-13T14:11:01.349Z,1.85
2023-01-13T14:15:07.214Z,2.92
2023-01-13T14:19:27.522Z,4.03
2023-01-13T14:23:33.519Z,3.53
2023-01-13T14:27:44.816Z,1.33
2023-01-13T14:31:49.874Z,3.10
2023-01-13T14:36:16.299Z,1.40
2023-01-13T14:40:45.765Z,4.78
2023-01-13T14:44:56.954Z,4.27
2023-01-13T14:49:10.151Z,5.43
2023-01-13T14:53:32.594Z,5.23
2023-01-13T14:57:45.875Z,3.27
2023-01-13T15:01:48.995Z,5.23
2023-01-13T15:05:54.716Z,2.92
2023-01-13T15:10:02.214Z,5.85
2023-01-13T15:14:11.831Z,6.10
2023-01-13T15:18:17.239Z,6.27
2023-01-13T15:22:21.761Z,8.03
2023-01-13T15:26:27.579Z,4.57
2023-01-13T15:30:33.285Z,4.00
2023-01-13T15:34:36.311Z,5.27
2023-01-13T15:38:40.758Z,4.83
2023-01-13T15:43:03.405Z,5.03
2023-01-13T15:47:13.890Z,16.67
2023-01-13T15:51:17.660Z,7.77
2023-01-13T15:55:22.103Z,8.63
2023-01-13T15:59:29.482Z,9.73
2023-01-13T16:03:34.562Z,15.93
2023-01-13T16:12:21.713Z,9.97
2023-01-13T16:16:33.141Z,20.87
2023-01-13T16:20:40.620Z,15.10
2023-01-13T16:24:46.027Z,29.77
2023-01-13T16:28:50.835Z,117.33
2023-01-13T16:32:55.073Z,594.57
2023-01-13T16:36:58.143Z,879.70
2023-01-13T16:41:01.245Z,361.87
2023-01-13T16:45:12.567Z,394.93
2023-01-13T16:49:19.870Z,1020.13
2023-01-13T16:53:23.624Z,835.47
2023-01-13T16:57:28.566Z,376.73
2023-01-13T17:01:35.638Z,277.57
2023-01-13T17:05:41.804Z,38.63
2023-01-13T17:09:46.235Z,14.93
2023-01-13T17:13:49.572Z,10.60
2023-01-13T17:17:58.262Z,6.40
2023-01-13T17:22:02.715Z,8.57
2023-01-13T17:26:06.011Z,8.23
2023-01-13T17:30:14.273Z,3.20
2023-01-13T17:34:21.246Z,5.77
2023-01-13T17:38:33.872Z,9.03
2023-01-13T17:42:40.754Z,7.80
2023-01-13T17:46:47.646Z,5.97
2023-01-13T17:50:52.365Z,4.33
2023-01-13T17:54:55.385Z,2.95
2023-01-13T17:58:58.483Z,5.00
2023-01-13T18:03:01.676Z,5.00
2023-01-13T18:07:12.992Z,4.37
2023-01-13T18:11:18.968Z,3.27
2023-01-13T18:15:25.658Z,4.77
2023-01-13T18:19:46.622Z,7.80
2023-01-13T18:24:09.500Z,8.63
2023-01-13T18:28:12.752Z,8.90
2023-01-13T18:32:15.823Z,9.73
2023-01-13T18:36:29.452Z,4.20
2023-01-13T18:40:33.994Z,7.07
2023-01-13T18:44:37.017Z,4.30
2023-01-13T18:48:40.164Z,10.03
2023-01-13T18:52:48.334Z,7.80
2023-01-13T18:57:01.704Z,8.83
2023-01-13T19:01:07.189Z,10.10
2023-01-13T19:05:12.220Z,6.33
2023-01-13T19:09:15.954Z,7.93
2023-01-13T19:13:29.668Z,3.40
2023-01-13T19:17:36.732Z,5.67
2023-01-13T19:21:40.677Z,5.83
2023-01-13T19:25:49.767Z,4.30
2023-01-13T19:29:58.358Z,8.23
2023-01-13T19:34:01.604Z,4.23
2023-01-13T19:38:06.636Z,4.90
2023-01-13T19:42:32.120Z,5.57
2023-01-13T19:46:38.798Z,6.33
2023-01-13T19:50:42.217Z,2.17
2023-01-13T19:54:48.098Z,4.20
2023-01-13T19:58:51.736Z,9.07
2023-01-13T20:03:02.785Z,6.60
2023-01-13T20:07:06.695Z,4.87
2023-01-13T20:11:27.973Z,1.90
2023-01-13T20:15:31.892Z,7.73
2023-01-13T20:19:40.624Z,6.33
2023-01-13T20:23:45.974Z,12.43
2023-01-13T20:27:49.449Z,10.13
2023-01-13T20:31:55.798Z,10.10
2023-01-13T20:36:02.069Z,7.10
2023-01-13T20:40:10.019Z,5.10
2023-01-13T20:44:16.027Z,5.53
2023-01-13T20:48:22.304Z,7.70
2023-01-13T20:52:26.747Z,6.43
2023-01-13T20:56:30.265Z,7.03
2023-01-13T21:00:34.792Z,6.90
2023-01-13T21:04:41.431Z,7.73
2023-01-13T21:08:47.467Z,6.47
2023-01-13T21:13:08.198Z,5.63
2023-01-13T21:17:41.836Z,6.20
2023-01-13T21:21:44.841Z,6.07
2023-01-13T21:25:49.246Z,4.47
2023-01-13T21:29:52.267Z,8.10
2023-01-13T21:33:56.005Z,8.70
2023-01-13T21:38:00.408Z,7.67
2023-01-13T21:42:37.050Z,13.00
2023-01-13T21:47:00.061Z,5.47
2023-01-13T21:51:03.296Z,6.57
2023-01-13T21:55:21.245Z,6.03
2023-01-13T21:59:25.739Z,6.53
2023-01-13T22:03:53.370Z,8.93
2023-01-13T22:07:56.435Z,6.90
2023-01-13T22:12:00.443Z,4.40
2023-01-13T22:16:11.194Z,8.20
2023-01-13T22:20:15.373Z,4.63
2023-01-13T22:24:19.988Z,4.60
2023-01-13T22:28:25.344Z,3.90
2023-01-13T22:32:32.246Z,6.73
2023-01-13T22:36:35.513Z,8.10
2023-01-13T22:40:38.561Z,6.50
2023-01-13T22:44:43.717Z,10.33
2023-01-13T22:48:51.954Z,4.53
2023-01-13T22:52:57.771Z,3.77
2023-01-13T22:57:04.987Z,8.93
2023-01-13T23:01:09.324Z,8.97
2023-01-13T23:05:18.247Z,10.57
2023-01-13T23:09:21.612Z,4.83
2023-01-13T23:13:26.636Z,3.20
2023-01-13T23:17:29.715Z,4.50
2023-01-13T23:21:36.709Z,11.53
2023-01-13T23:25:39.793Z,10.67
2023-01-13T23:29:43.301Z,12.83
2023-01-13T23:33:46.930Z,5.10
2023-01-13T23:37:51.470Z,7.10
2023-01-13T23:41:56.839Z,3.33
2023-01-13T23:46:05.020Z,13.67
2023-01-13T23:50:23.671Z,8.97
2023-01-13T23:54:30.802Z,4.60
2023-01-13T23:58:35.617Z,7.90
